Time;durP1;ratioP1;P1;durP2;ratioP2;P2;SDS_P1;SDS_P2;PMS_P1;PMS_P2;Temp;Humidity;BMP_temperature;BMP_pressure;BME280_temperature;BME280_humidity;BME280_pressure;Samples;Min_cycle;Max_cycle;Signal;HPM_P1;HPM_P2
2023/11/11 00:00:46;;;;;;;22.98;14.05;;;;;;;8.46;100.00;98882.13;5095282;28;20127;-42
2023/11/11 00:03:17;;;;;;;21.75;13.63;;;;;;;8.52;100.00;98871.91;5095191;28;20121;-43
2023/11/11 00:05:45;;;;;;;20.55;13.43;;;;;;;8.53;100.00;98889.53;5094960;28;20044;-43
2023/11/11 00:08:14;;;;;;;20.85;13.52;;;;;;;8.53;100.00;98881.56;5095209;28;20133;-44
2023/11/11 00:10:42;;;;;;;23.13;14.20;;;;;;;8.44;100.00;98876.94;5095040;28;20080;-43
2023/11/11 00:13:10;;;;;;;22.85;14.25;;;;;;;8.43;100.00;98874.38;5094913;28;20097;-44
2023/11/11 00:15:40;;;;;;;22.83;15.13;;;;;;;8.23;100.00;98857.22;5094931;28;20094;-44
2023/11/11 00:18:08;;;;;;;25.52;15.82;;;;;;;8.39;100.00;98863.13;5094550;28;20105;-42
2023/11/11 00:20:37;;;;;;;22.40;15.00;;;;;;;8.52;100.00;98863.09;5095064;28;20124;-42
2023/11/11 00:23:05;;;;;;;24.38;15.05;;;;;;;8.41;100.00;98871.00;5094783;28;20048;-43
2023/11/11 00:25:34;;;;;;;24.13;15.07;;;;;;;8.48;100.00;98862.44;5094704;28;20413;-43
2023/11/11 00:28:02;;;;;;;24.48;15.10;;;;;;;8.60;100.00;98861.56;5094586;28;20130;-42
2023/11/11 00:30:31;;;;;;;25.65;15.00;;;;;;;8.45;100.00;98860.03;5094652;28;20414;-44
2023/11/11 00:33:01;;;;;;;22.50;15.05;;;;;;;8.49;100.00;98861.50;5094425;28;20040;-42
2023/11/11 00:35:29;;;;;;;22.63;14.05;;;;;;;8.39;100.00;98856.94;5094442;28;20648;-45
2023/11/11 00:37:57;;;;;;;24.23;15.07;;;;;;;8.38;100.00;98855.25;5094529;28;20143;-43
2023/11/11 00:40:26;;;;;;;24.42;14.48;;;;;;;8.55;100.00;98871.66;5094739;28;20394;-43
2023/11/11 00:42:54;;;;;;;24.67;15.40;;;;;;;8.60;100.00;98860.72;5094463;28;20105;-44
2023/11/11 00:45:22;;;;;;;24.73;14.90;;;;;;;8.63;100.00;98860.47;5094326;28;20453;-43
2023/11/11 00:47:51;;;;;;;23.67;14.38;;;;;;;8.76;100.00;98868.38;5094596;28;20063;-44
2023/11/11 00:50:21;;;;;;;26.33;14.82;;;;;;;8.90;100.00;98868.22;5094884;28;20048;-43
2023/11/11 00:52:49;;;;;;;23.75;14.98;;;;;;;8.80;100.00;98868.06;5094270;28;20052;-42
2023/11/11 00:55:17;;;;;;;23.73;14.18;;;;;;;8.83;100.00;98862.50;5094296;28;20093;-45
2023/11/11 00:57:46;;;;;;;24.13;14.68;;;;;;;8.77;100.00;98862.94;5094014;28;20074;-44
2023/11/11 01:00:19;;;;;;;23.17;14.70;;;;;;;8.83;100.00;98845.69;5094209;28;20048;-46
2023/11/11 01:02:47;;;;;;;24.08;15.27;;;;;;;8.78;100.00;98847.84;5094147;28;20048;-44
2023/11/11 01:05:17;;;;;;;24.60;14.70;;;;;;;8.74;100.00;98849.03;5093411;28;20404;-43
2023/11/11 01:07:46;;;;;;;23.52;14.93;;;;;;;8.81;100.00;98844.97;5094105;28;20052;-45
2023/11/11 01:10:18;;;;;;;25.13;14.98;;;;;;;8.82;100.00;98859.97;5093860;28;20067;-42
2023/11/11 01:12:47;;;;;;;25.42;14.35;;;;;;;8.83;100.00;98845.69;5092799;28;20050;-41
2023/11/11 01:15:15;;;;;;;24.90;14.48;;;;;;;8.89;100.00;98839.94;5094232;28;20430;-43
2023/11/11 01:17:43;;;;;;;24.90;14.75;;;;;;;8.83;100.00;98840.38;5092649;28;20052;-44
2023/11/11 01:20:15;;;;;;;21.63;13.38;;;;;;;8.57;100.00;98835.19;5093887;28;20085;-43
2023/11/11 01:22:44;;;;;;;23.05;13.77;;;;;;;8.37;100.00;98838.47;5093656;28;20052;-43
2023/11/11 01:25:14;;;;;;;25.48;14.20;;;;;;;8.23;100.00;98841.28;5093675;28;20116;-42
2023/11/11 01:27:42;;;;;;;23.25;13.13;;;;;;;8.09;100.00;98825.47;5093839;28;20414;-42
2023/11/11 01:30:12;;;;;;;25.17;14.43;;;;;;;8.04;100.00;98816.03;5093833;28;20135;-44
2023/11/11 01:32:41;;;;;;;24.05;14.45;;;;;;;8.16;100.00;98835.53;5093606;28;20083;-43
2023/11/11 01:35:13;;;;;;;25.80;15.45;;;;;;;8.11;100.00;98820.94;5093334;28;20040;-44
2023/11/11 01:37:41;;;;;;;30.05;15.40;;;;;;;8.19;100.00;98818.53;5093103;28;20044;-44
2023/11/11 01:40:11;;;;;;;28.58;15.80;;;;;;;8.22;100.00;98823.66;5093469;28;20105;-42
2023/11/11 01:42:40;;;;;;;26.92;15.07;;;;;;;8.35;100.00;98815.66;5093403;28;20131;-44
2023/11/11 01:45:10;;;;;;;27.17;15.43;;;;;;;8.63;100.00;98814.44;5093331;28;20051;-42
2023/11/11 01:47:38;;;;;;;27.98;15.43;;;;;;;8.64;100.00;98809.00;5093073;28;20048;-43
2023/11/11 01:50:11;;;;;;;28.30;15.10;;;;;;;8.66;100.00;98808.88;5092739;28;20467;-42
2023/11/11 01:52:41;;;;;;;27.52;15.60;;;;;;;8.81;100.00;98811.25;5093198;28;20048;-44
2023/11/11 01:55:10;;;;;;;27.02;14.18;;;;;;;8.93;100.00;98813.94;5093018;28;20409;-43
2023/11/11 01:57:38;;;;;;;30.15;15.10;;;;;;;8.88;100.00;98814.31;5092986;28;20044;-42
2023/11/11 02:00:12;;;;;;;26.25;15.07;;;;;;;8.44;100.00;98815.81;5092843;28;20420;-43
2023/11/11 02:02:41;;;;;;;28.20;14.82;;;;;;;8.48;100.00;98811.94;5092751;28;20093;-43
2023/11/11 02:05:10;;;;;;;32.03;14.90;;;;;;;8.56;100.00;98814.03;5092876;28;20040;-43
2023/11/11 02:07:40;;;;;;;27.27;14.93;;;;;;;8.53;100.00;98812.47;5092784;28;20139;-42
2023/11/11 02:10:10;;;;;;;30.50;15.93;;;;;;;8.54;100.00;98819.47;5092658;28;20134;-43
2023/11/11 02:12:41;;;;;;;31.30;16.33;;;;;;;8.66;100.00;98817.72;5092712;28;20091;-42
2023/11/11 02:15:15;;;;;;;28.98;15.05;;;;;;;8.74;100.00;98815.31;5092461;28;20052;-43
2023/11/11 02:17:43;;;;;;;31.05;15.48;;;;;;;8.77;100.00;98819.56;5091565;28;20135;-42
2023/11/11 02:20:12;;;;;;;26.63;14.88;;;;;;;8.75;100.00;98816.16;5092401;28;20158;-43
2023/11/11 02:22:41;;;;;;;28.35;14.35;;;;;;;8.66;100.00;98809.72;5092196;28;20097;-45
2023/11/11 02:25:11;;;;;;;25.70;14.10;;;;;;;8.43;100.00;98821.25;5092601;28;20043;-43
2023/11/11 02:27:39;;;;;;;25.42;13.88;;;;;;;8.42;100.00;98820.41;5092515;28;20143;-43
2023/11/11 02:30:11;;;;;;;32.17;15.10;;;;;;;8.30;100.00;98826.59;5092539;28;20052;-43
2023/11/11 02:32:41;;;;;;;27.05;14.02;;;;;;;8.48;100.00;98825.25;5092613;28;20050;-45
2023/11/11 02:35:09;;;;;;;32.80;15.32;;;;;;;8.70;100.00;98835.13;5093033;28;20048;-43
2023/11/11 02:37:37;;;;;;;28.90;15.57;;;;;;;8.63;100.00;98827.72;5093137;28;20044;-42
2023/11/11 02:40:07;;;;;;;29.55;16.20;;;;;;;8.72;100.00;98816.41;5092728;28;20127;-44
2023/11/11 02:42:37;;;;;;;30.15;15.02;;;;;;;8.58;100.00;98820.94;5092745;28;20048;-43
2023/11/11 02:45:07;;;;;;;30.08;14.30;;;;;;;8.39;100.00;98814.44;5093168;28;20044;-44
2023/11/11 02:47:35;;;;;;;33.08;15.63;;;;;;;8.37;100.00;98800.44;5092932;28;20130;-44
2023/11/11 02:50:04;;;;;;;27.60;14.30;;;;;;;8.32;100.00;98803.41;5093280;28;20044;-46
2023/11/11 02:52:32;;;;;;;28.58;14.38;;;;;;;8.22;100.00;98807.72;5092647;28;20044;-44
2023/11/11 02:55:01;;;;;;;29.35;15.32;;;;;;;8.48;100.00;98803.97;5092417;28;20044;-45
2023/11/11 02:57:29;;;;;;;32.58;15.80;;;;;;;8.50;100.00;98795.91;5091992;28;20048;-42
2023/11/11 03:00:01;;;;;;;31.77;16.55;;;;;;;8.41;100.00;98797.44;5092262;28;20086;-44
2023/11/11 03:02:29;;;;;;;29.88;15.93;;;;;;;8.38;100.00;98796.81;5092161;28;20044;-43
2023/11/11 03:04:58;;;;;;;30.55;15.52;;;;;;;8.47;100.00;98794.31;5091738;28;20048;-42
2023/11/11 03:07:26;;;;;;;29.70;14.80;;;;;;;8.55;100.00;98789.28;5091613;28;20529;-43
2023/11/11 03:09:55;;;;;;;30.80;15.68;;;;;;;8.41;100.00;98781.50;5091883;28;20047;-43
2023/11/11 03:12:23;;;;;;;31.60;15.07;;;;;;;8.42;100.00;98769.91;5091589;28;20189;-44
2023/11/11 03:14:52;;;;;;;30.80;14.50;;;;;;;8.42;100.00;98767.25;5091672;28;20358;-43
2023/11/11 03:17:23;;;;;;;31.88;15.70;;;;;;;8.44;100.00;98765.31;5091519;28;20051;-44
2023/11/11 03:19:53;;;;;;;32.75;15.55;;;;;;;8.55;100.00;98762.69;5091447;28;20091;-44
2023/11/11 03:22:22;;;;;;;31.65;15.15;;;;;;;8.62;100.00;98762.25;5091304;28;20071;-43
2023/11/11 03:24:50;;;;;;;32.55;16.35;;;;;;;8.49;100.00;98757.88;5091406;28;20040;-43
2023/11/11 03:27:18;;;;;;;28.05;14.93;;;;;;;8.33;100.00;98759.94;5091045;28;20059;-43
2023/11/11 03:29:47;;;;;;;29.92;14.50;;;;;;;8.20;100.00;98760.00;5091093;28;20108;-44
2023/11/11 03:32:15;;;;;;;32.00;15.50;;;;;;;8.13;100.00;98749.94;5091231;28;20147;-43
2023/11/11 03:34:45;;;;;;;28.90;15.35;;;;;;;8.23;100.00;98750.97;5091098;28;20101;-44
2023/11/11 03:37:13;;;;;;;30.02;14.13;;;;;;;8.08;100.00;98752.06;5091293;28;20117;-43
2023/11/11 03:39:44;;;;;;;34.20;15.18;;;;;;;8.18;100.00;98750.44;5091109;28;20044;-43
2023/11/11 03:42:13;;;;;;;28.98;15.35;;;;;;;8.19;100.00;98754.78;5090992;28;20044;-44
2023/11/11 03:44:41;;;;;;;35.28;16.40;;;;;;;8.22;100.00;98755.44;5090967;28;20076;-43
2023/11/11 03:47:09;;;;;;;36.63;16.80;;;;;;;8.25;100.00;98754.34;5091047;28;20492;-42
2023/11/11 03:49:38;;;;;;;37.05;16.88;;;;;;;8.30;100.00;98753.06;5090902;28;20697;-43
2023/11/11 03:52:09;;;;;;;35.50;16.45;;;;;;;8.41;100.00;98749.63;5091258;28;20130;-45
2023/11/11 03:54:39;;;;;;;33.70;15.40;;;;;;;8.49;100.00;98757.88;5091035;28;20135;-43
2023/11/11 03:57:08;;;;;;;33.15;16.02;;;;;;;8.42;100.00;98748.66;5091106;28;20044;-42
2023/11/11 03:59:36;;;;;;;34.15;16.90;;;;;;;8.50;100.00;98758.72;5091074;28;20051;-44
2023/11/11 04:02:06;;;;;;;40.47;17.48;;;;;;;8.30;100.00;98752.22;5091236;28;20044;-44
2023/11/11 04:04:34;;;;;;;37.80;17.23;;;;;;;8.15;100.00;98753.34;5091007;28;20129;-43
2023/11/11 04:07:03;;;;;;;36.70;17.13;;;;;;;8.29;100.00;98745.16;5091209;28;20123;-43
2023/11/11 04:09:33;;;;;;;40.08;18.15;;;;;;;8.32;100.00;98739.66;5091112;28;20339;-43
2023/11/11 04:12:02;;;;;;;41.55;17.52;;;;;;;8.15;100.00;98732.94;5091012;28;20044;-44
2023/11/11 04:14:31;;;;;;;42.90;18.30;;;;;;;8.36;100.00;98729.66;5091143;28;20044;-44
2023/11/11 04:16:59;;;;;;;43.45;17.42;;;;;;;8.29;100.00;98732.72;5090929;28;20126;-44
2023/11/11 04:19:27;;;;;;;38.22;17.77;;;;;;;8.29;100.00;98734.53;5090837;28;20044;-43
2023/11/11 04:21:56;;;;;;;44.25;17.88;;;;;;;8.14;100.00;98719.78;5090655;28;20048;-43
2023/11/11 04:24:24;;;;;;;40.25;17.13;;;;;;;8.13;100.00;98715.41;5090715;28;20485;-51
2023/11/11 04:26:54;;;;;;;47.10;17.65;;;;;;;8.03;100.00;98713.44;5090641;28;20136;-43
2023/11/11 04:29:22;;;;;;;42.75;17.15;;;;;;;8.12;100.00;98719.03;5089744;28;20048;-43
2023/11/11 04:31:51;;;;;;;39.33;17.67;;;;;;;8.02;100.00;98719.72;5090846;28;20044;-43
2023/11/11 04:34:20;;;;;;;42.75;17.23;;;;;;;8.01;100.00;98717.19;5090717;28;20135;-44
2023/11/11 04:36:48;;;;;;;40.70;16.27;;;;;;;7.88;100.00;98721.69;5090752;28;20055;-42
2023/11/11 04:39:17;;;;;;;46.58;17.90;;;;;;;7.98;100.00;98725.34;5090647;28;20423;-43
2023/11/11 04:41:47;;;;;;;40.47;17.85;;;;;;;8.19;100.00;98725.56;5093943;28;20101;-43
2023/11/11 04:44:17;;;;;;;39.38;16.98;;;;;;;8.16;100.00;98729.31;5094500;28;20497;-44
2023/11/11 04:46:45;;;;;;;36.55;17.02;;;;;;;8.07;100.00;98726.50;5094399;28;20055;-43
2023/11/11 04:49:17;;;;;;;43.60;18.05;;;;;;;7.88;100.00;98727.00;5094233;28;20420;-44
2023/11/11 04:51:45;;;;;;;42.97;17.30;;;;;;;8.16;100.00;98721.34;5094224;28;20079;-44
2023/11/11 04:54:14;;;;;;;43.67;17.73;;;;;;;8.11;100.00;98715.53;5093940;28;20075;-44
2023/11/11 04:56:45;;;;;;;43.65;18.38;;;;;;;7.98;100.00;98710.28;5094248;28;20083;-44
2023/11/11 04:59:13;;;;;;;40.40;17.45;;;;;;;7.94;100.00;98724.75;5094236;28;20048;-43
2023/11/11 05:01:43;;;;;;;37.88;17.88;;;;;;;7.89;100.00;98715.41;5093869;28;20060;-46
2023/11/11 05:04:12;;;;;;;39.78;18.70;;;;;;;7.91;100.00;98719.66;5093713;28;20040;-43
2023/11/11 05:06:41;;;;;;;39.38;19.30;;;;;;;7.73;100.00;98713.91;5093611;28;20481;-43
2023/11/11 05:09:09;;;;;;;37.05;20.00;;;;;;;7.77;100.00;98718.97;5094068;28;20048;-43
2023/11/11 05:11:38;;;;;;;38.22;19.38;;;;;;;7.80;100.00;98708.97;5093894;28;20619;-43
2023/11/11 05:14:08;;;;;;;36.90;18.98;;;;;;;7.76;100.00;98715.47;5093767;28;20464;-44
2023/11/11 05:16:40;;;;;;;42.25;20.35;;;;;;;7.76;100.00;98710.16;5093635;28;20073;-45
2023/11/11 05:19:10;;;;;;;41.72;20.10;;;;;;;7.86;100.00;98718.31;5093545;28;20055;-44
2023/11/11 05:21:38;;;;;;;33.58;19.00;;;;;;;7.84;100.00;98723.72;5093535;28;20056;-44
2023/11/11 05:24:08;;;;;;;34.80;18.02;;;;;;;7.79;100.00;98725.00;5093421;28;20124;-44
2023/11/11 05:26:39;;;;;;;33.67;18.08;;;;;;;7.90;100.00;98725.91;5093634;28;20048;-44
2023/11/11 05:29:08;;;;;;;39.75;19.05;;;;;;;7.91;100.00;98738.25;5093551;28;20044;-43
2023/11/11 05:31:37;;;;;;;36.90;19.00;;;;;;;7.85;100.00;98741.34;5093372;28;20084;-43
2023/11/11 05:34:05;;;;;;;35.65;18.45;;;;;;;7.87;100.00;98744.72;5093621;28;20189;-43
2023/11/11 05:36:36;;;;;;;36.63;18.70;;;;;;;7.83;100.00;98743.28;5093503;28;20127;-44
2023/11/11 05:39:06;;;;;;;36.13;19.15;;;;;;;7.88;100.00;98749.06;5093416;28;20054;-43
2023/11/11 05:41:34;;;;;;;35.22;18.20;;;;;;;7.86;100.00;98737.72;5093109;28;20139;-44
2023/11/11 05:44:05;;;;;;;31.95;17.15;;;;;;;7.71;100.00;98738.84;5093083;28;20067;-45
2023/11/11 05:46:33;;;;;;;31.33;17.88;;;;;;;7.68;100.00;98741.72;5093047;28;20083;-44
2023/11/11 05:49:03;;;;;;;31.02;17.17;;;;;;;7.69;100.00;98738.94;5093144;28;20051;-43
2023/11/11 05:51:31;;;;;;;30.55;17.20;;;;;;;7.85;100.00;98736.03;5092907;28;20048;-43
2023/11/11 05:54:02;;;;;;;32.38;18.20;;;;;;;7.69;100.00;98741.59;5092910;28;20058;-43
2023/11/11 05:56:30;;;;;;;31.65;17.25;;;;;;;7.56;100.00;98739.94;5092923;28;20408;-43
2023/11/11 05:58:59;;;;;;;33.92;18.65;;;;;;;7.73;100.00;98735.13;5093044;28;20046;-43
2023/11/11 06:01:27;;;;;;;36.05;19.50;;;;;;;7.79;100.00;98747.09;5092901;28;20416;-43
2023/11/11 06:03:55;;;;;;;33.20;18.00;;;;;;;7.83;100.00;98753.88;5092871;28;20580;-44
2023/11/11 06:06:27;;;;;;;33.95;18.63;;;;;;;7.88;100.00;98751.72;5092613;28;20504;-42
2023/11/11 06:08:55;;;;;;;31.48;17.55;;;;;;;7.74;100.00;98762.50;5092615;28;20549;-44
2023/11/11 06:11:28;;;;;;;33.22;18.45;;;;;;;7.95;100.00;98760.09;5092406;28;20136;-42
2023/11/11 06:14:00;;;;;;;34.42;18.25;;;;;;;7.85;100.00;98767.91;5091853;28;20048;-42
2023/11/11 06:16:28;;;;;;;34.35;17.83;;;;;;;7.79;100.00;98772.78;5092613;28;20048;-42
2023/11/11 06:18:57;;;;;;;32.40;17.02;;;;;;;7.69;100.00;98762.84;5092562;28;20505;-43
2023/11/11 06:21:25;;;;;;;31.05;16.80;;;;;;;7.72;100.00;98762.63;5092374;28;20063;-44
2023/11/11 06:23:55;;;;;;;29.00;17.10;;;;;;;7.72;100.00;98762.63;5092206;28;20052;-43
2023/11/11 06:26:25;;;;;;;32.10;17.05;;;;;;;7.73;100.00;98763.47;5092417;28;20124;-44
2023/11/11 06:28:53;;;;;;;29.15;17.13;;;;;;;7.79;100.00;98760.38;5091153;28;20629;-42
2023/11/11 06:31:23;;;;;;;34.15;18.02;;;;;;;7.92;100.00;98760.34;5092320;28;20073;-42
2023/11/11 06:33:51;;;;;;;32.22;17.63;;;;;;;8.13;100.00;98768.53;5092358;28;20051;-45
2023/11/11 06:36:20;;;;;;;29.98;17.30;;;;;;;7.96;100.00;98772.41;5092451;28;20044;-44
2023/11/11 06:38:48;;;;;;;34.05;17.55;;;;;;;8.13;100.00;98771.19;5092024;28;20139;-44
2023/11/11 06:41:19;;;;;;;32.67;17.30;;;;;;;8.13;100.00;98776.50;5092160;28;20044;-43
2023/11/11 06:43:49;;;;;;;31.58;16.63;;;;;;;7.94;100.00;98783.16;5092318;28;20044;-44
2023/11/11 06:46:18;;;;;;;32.80;17.17;;;;;;;7.90;100.00;98781.66;5091934;28;20105;-43
2023/11/11 06:48:46;;;;;;;33.05;17.38;;;;;;;7.92;100.00;98779.78;5091728;28;20048;-43
2023/11/11 06:51:16;;;;;;;32.60;17.55;;;;;;;7.91;100.00;98775.44;5091774;28;20174;-42
2023/11/11 06:53:44;;;;;;;33.35;19.25;;;;;;;7.96;100.00;98775.91;5091974;28;20135;-43
2023/11/11 06:56:15;;;;;;;34.13;18.02;;;;;;;7.93;100.00;98776.16;5091985;28;20130;-43
2023/11/11 06:58:43;;;;;;;34.47;18.23;;;;;;;8.00;100.00;98766.75;5092145;28;20039;-43
2023/11/11 07:01:15;;;;;;;34.78;17.77;;;;;;;8.01;100.00;98767.63;5091898;28;20110;-43
2023/11/11 07:03:45;;;;;;;34.05;17.63;;;;;;;7.82;100.00;98762.81;5090952;28;20089;-42
2023/11/11 07:06:22;;;;;;;31.98;17.77;;;;;;;7.91;100.00;98756.84;5090080;28;20056;-42
2023/11/11 07:08:51;;;;;;;34.10;17.85;;;;;;;8.06;100.00;98759.31;5091528;28;20048;-44
2023/11/11 07:11:20;;;;;;;37.08;17.55;;;;;;;7.98;100.00;98755.41;5091350;28;20086;-42
2023/11/11 07:13:48;;;;;;;33.47;18.10;;;;;;;8.27;100.00;98757.72;5091415;28;20050;-42
2023/11/11 07:16:19;;;;;;;34.13;18.33;;;;;;;8.36;100.00;98761.53;5091320;28;20040;-42
2023/11/11 07:18:48;;;;;;;32.28;17.08;;;;;;;8.19;100.00;98760.94;5091548;28;20055;-42
2023/11/11 07:21:21;;;;;;;28.45;16.35;;;;;;;8.37;100.00;98768.53;5090939;28;20044;-42
2023/11/11 07:23:50;;;;;;;29.58;16.23;;;;;;;8.38;100.00;98765.78;5091143;28;20087;-42
2023/11/11 07:26:19;;;;;;;28.40;15.73;;;;;;;8.36;100.00;98767.69;5091517;28;20126;-44
2023/11/11 07:28:48;;;;;;;27.85;15.82;;;;;;;8.25;100.00;98763.16;5091176;28;20048;-43
2023/11/11 07:31:22;;;;;;;27.08;15.25;;;;;;;8.32;100.00;98774.19;5091304;28;20131;-42
2023/11/11 07:33:51;;;;;;;22.67;14.02;;;;;;;8.27;100.00;98774.50;5091331;28;20087;-44
2023/11/11 07:36:20;;;;;;;24.73;14.65;;;;;;;8.44;100.00;98769.78;5091317;28;20098;-43
2023/11/11 07:38:49;;;;;;;23.88;13.50;;;;;;;8.35;100.00;98776.63;5091107;28;20071;-43
2023/11/11 07:41:19;;;;;;;24.00;14.13;;;;;;;8.25;100.00;98764.97;5090573;28;20063;-43
2023/11/11 07:43:48;;;;;;;25.85;14.32;;;;;;;8.54;100.00;98768.13;5088593;28;20052;-43
2023/11/11 07:46:20;;;;;;;28.58;16.13;;;;;;;8.60;100.00;98765.03;5091171;28;20048;-42
2023/11/11 07:48:48;;;;;;;25.13;14.40;;;;;;;8.64;100.00;98768.28;5091367;28;20109;-42
2023/11/11 07:51:17;;;;;;;21.73;13.82;;;;;;;8.36;100.00;98772.16;5091148;28;20052;-42
2023/11/11 07:53:45;;;;;;;26.15;14.00;;;;;;;8.36;100.00;98765.03;5091270;28;20135;-44
2023/11/11 07:56:13;;;;;;;20.23;13.00;;;;;;;8.30;100.00;98768.16;5091477;28;20479;-42
2023/11/11 07:58:41;;;;;;;21.88;13.40;;;;;;;8.26;100.00;98770.16;5090697;28;20048;-44
2023/11/11 08:01:11;;;;;;;23.55;14.55;;;;;;;8.27;100.00;98761.22;5090634;28;20044;-44
2023/11/11 08:03:42;;;;;;;26.38;14.48;;;;;;;8.40;100.00;98761.22;5090584;28;20050;-44
2023/11/11 08:06:10;;;;;;;21.13;13.50;;;;;;;8.39;100.00;98748.88;5090609;28;20144;-45
2023/11/11 08:08:40;;;;;;;23.42;14.93;;;;;;;8.19;100.00;98754.78;5090458;28;20139;-42
2023/11/11 08:11:10;;;;;;;24.38;14.85;;;;;;;8.20;100.00;98746.72;5090847;28;20048;-42
2023/11/11 08:13:39;;;;;;;20.17;13.15;;;;;;;8.15;100.00;98742.72;5090924;28;20048;-42
2023/11/11 08:16:07;;;;;;;22.05;12.90;;;;;;;8.26;100.00;98734.78;5094441;28;20100;-43
2023/11/11 08:18:37;;;;;;;21.27;13.40;;;;;;;8.45;100.00;98736.94;5094376;28;20056;-43
2023/11/11 08:21:19;;;;;;;21.65;13.57;;;;;;;8.54;100.00;98738.91;5094080;28;20082;-43
2023/11/11 08:23:48;;;;;;;19.90;12.50;;;;;;;8.52;100.00;98741.69;5093950;28;20123;-43
2023/11/11 08:26:17;;;;;;;21.40;13.48;;;;;;;8.69;100.00;98739.56;5094302;28;20051;-44
2023/11/11 08:28:45;;;;;;;20.33;12.98;;;;;;;8.66;100.00;98735.31;5094114;28;20044;-43
2023/11/11 08:31:14;;;;;;;18.10;11.32;;;;;;;8.73;100.00;98738.34;5094124;28;20080;-43
2023/11/11 08:33:43;;;;;;;18.52;11.02;;;;;;;8.65;100.00;98738.94;5094460;28;20126;-44
2023/11/11 08:36:12;;;;;;;16.92;10.55;;;;;;;8.61;100.00;98740.16;5094325;28;20139;-43
2023/11/11 08:38:42;;;;;;;17.50;10.73;;;;;;;8.59;100.00;98737.59;5094158;28;20058;-42
2023/11/11 08:41:13;;;;;;;16.48;10.43;;;;;;;8.64;100.00;98734.59;5093856;28;20044;-44
2023/11/11 08:43:41;;;;;;;16.42;10.40;;;;;;;8.54;100.00;98729.13;5093882;28;20048;-41
2023/11/11 08:46:10;;;;;;;15.55;10.82;;;;;;;8.65;100.00;98736.28;5094354;28;20040;-42
2023/11/11 08:48:40;;;;;;;16.95;10.38;;;;;;;8.56;100.00;98737.81;5093901;28;20075;-43
2023/11/11 08:51:11;;;;;;;17.20;11.63;;;;;;;8.66;100.00;98737.13;5093868;28;20082;-42
2023/11/11 08:53:42;;;;;;;16.45;10.88;;;;;;;8.68;100.00;98737.84;5093961;28;20389;-43
2023/11/11 08:56:10;;;;;;;18.85;12.02;;;;;;;8.81;100.00;98735.97;5094079;28;20071;-44
2023/11/11 08:58:39;;;;;;;17.23;11.45;;;;;;;8.82;100.00;98737.66;5093760;28;20051;-43
2023/11/11 09:01:08;;;;;;;20.38;12.57;;;;;;;8.74;100.00;98740.03;5093915;28;20048;-43
2023/11/11 09:03:36;;;;;;;17.95;12.15;;;;;;;8.65;100.00;98746.06;5094054;28;20052;-43
2023/11/11 09:06:06;;;;;;;20.38;12.43;;;;;;;8.77;100.00;98740.66;5093644;28;20179;-43
2023/11/11 09:08:34;;;;;;;20.42;12.35;;;;;;;8.74;100.00;98740.03;5093468;28;20090;-44
2023/11/11 09:11:06;;;;;;;20.73;13.80;;;;;;;8.95;100.00;98749.03;5093112;28;20090;-45
2023/11/11 09:13:34;;;;;;;22.00;13.60;;;;;;;8.77;100.00;98740.66;5093344;28;20044;-44
2023/11/11 09:16:03;;;;;;;21.67;13.85;;;;;;;8.85;100.00;98742.72;5091365;28;20048;-43
2023/11/11 09:18:32;;;;;;;20.45;13.20;;;;;;;8.94;100.00;98741.16;5093230;28;20114;-43
2023/11/11 09:21:07;;;;;;;23.95;14.35;;;;;;;8.75;100.00;98744.41;5093180;28;20506;-44
2023/11/11 09:23:36;;;;;;;23.85;14.13;;;;;;;8.64;100.00;98739.06;5092570;28;20052;-45
2023/11/11 09:26:06;;;;;;;23.15;13.75;;;;;;;8.88;100.00;98742.50;5092489;28;20044;-47
2023/11/11 09:28:34;;;;;;;23.77;14.68;;;;;;;8.94;100.00;98741.16;5093178;28;20048;-45
2023/11/11 09:31:03;;;;;;;24.40;14.25;;;;;;;8.92;100.00;98745.75;5091631;28;20417;-42
2023/11/11 09:33:32;;;;;;;24.77;14.93;;;;;;;9.01;100.00;98737.91;5091534;28;20128;-42
2023/11/11 09:36:00;;;;;;;23.33;14.68;;;;;;;8.98;100.00;98738.16;5083979;28;20048;-43
2023/11/11 09:38:29;;;;;;;24.92;14.80;;;;;;;9.04;100.00;98729.69;5091795;28;20174;-43
2023/11/11 09:40:57;;;;;;;22.65;14.13;;;;;;;9.03;100.00;98730.66;5091018;28;20048;-42
2023/11/11 09:43:27;;;;;;;23.45;14.20;;;;;;;9.19;100.00;98725.00;5088714;28;20056;-42
2023/11/11 09:45:57;;;;;;;24.67;14.30;;;;;;;9.09;100.00;98722.22;5092035;28;20480;-43
2023/11/11 09:48:26;;;;;;;25.45;14.52;;;;;;;9.23;100.00;98715.81;5092039;28;20079;-42
2023/11/11 09:50:57;;;;;;;21.15;13.15;;;;;;;9.08;100.00;98717.03;5090323;28;20105;-43
2023/11/11 09:53:27;;;;;;;26.17;14.55;;;;;;;9.19;100.00;98714.38;5091512;28;20047;-43
2023/11/11 09:55:56;;;;;;;25.38;14.43;;;;;;;9.17;100.00;98722.47;5091452;28;20752;-42
2023/11/11 09:58:26;;;;;;;23.27;14.40;;;;;;;9.27;100.00;98713.75;5091802;28;20047;-42
2023/11/11 10:00:56;;;;;;;23.05;14.38;;;;;;;9.22;100.00;98715.94;5090283;28;20097;-44
2023/11/11 10:03:24;;;;;;;23.60;14.60;;;;;;;9.29;100.00;98710.00;5091347;28;20108;-42
2023/11/11 10:05:53;;;;;;;22.73;13.93;;;;;;;9.30;100.00;98709.03;5091085;28;20401;-43
2023/11/11 10:08:24;;;;;;;23.52;14.88;;;;;;;9.22;100.00;98703.47;5091204;28;20124;-42
2023/11/11 10:10:53;;;;;;;22.67;14.30;;;;;;;9.16;100.00;98710.09;5089487;28;20056;-43
2023/11/11 10:13:22;;;;;;;23.95;14.40;;;;;;;9.28;100.00;98707.47;5090966;28;20174;-43
2023/11/11 10:15:51;;;;;;;26.13;15.27;;;;;;;9.38;100.00;98708.44;5091472;28;20082;-41
2023/11/11 10:18:20;;;;;;;23.20;14.25;;;;;;;9.33;100.00;98705.28;5091116;28;20140;-43
2023/11/11 10:20:49;;;;;;;21.13;12.70;;;;;;;9.28;100.00;98707.47;5089981;28;20183;-45
2023/11/11 10:23:20;;;;;;;20.98;12.98;;;;;;;9.13;100.00;98712.16;5089365;28;20706;-42
2023/11/11 10:25:49;;;;;;;22.10;13.73;;;;;;;9.25;100.00;98708.53;5090826;28;20446;-42
2023/11/11 10:28:18;;;;;;;20.67;12.93;;;;;;;9.13;100.00;98707.69;5090266;28;20044;-42
2023/11/11 10:30:51;;;;;;;19.52;13.35;;;;;;;9.29;100.00;98709.16;5089032;28;20147;-43
2023/11/11 10:33:24;;;;;;;20.67;12.57;;;;;;;9.24;100.00;98706.00;5090926;28;20044;-43
2023/11/11 10:35:59;;;;;;;19.35;12.52;;;;;;;9.36;100.00;98699.69;5091022;28;20044;-45
2023/11/11 10:38:30;;;;;;;19.70;12.52;;;;;;;9.39;100.00;98699.47;5089665;28;20127;-45
2023/11/11 10:41:12;;;;;;;20.65;12.43;;;;;;;9.15;100.00;98703.09;5089801;28;20048;-44
2023/11/11 10:43:56;;;;;;;16.77;11.60;;;;;;;9.08;100.00;98701.91;5091588;28;20044;-45
2023/11/11 10:46:33;;;;;;;17.70;11.95;;;;;;;9.26;100.00;98698.75;5090866;28;20102;-45
2023/11/11 10:49:04;;;;;;;20.02;11.80;;;;;;;9.22;100.00;98694.66;5090502;28;20055;-41
2023/11/11 10:51:34;;;;;;;17.98;12.23;;;;;;;9.04;100.00;98705.75;5089215;28;20044;-43
2023/11/11 10:54:05;;;;;;;17.98;12.07;;;;;;;9.16;100.00;98709.25;5090371;28;20044;-43
2023/11/11 10:56:34;;;;;;;20.27;12.15;;;;;;;9.09;100.00;98698.28;5090603;28;20063;-43
2023/11/11 10:59:04;;;;;;;21.70;13.15;;;;;;;9.14;100.00;98701.41;5089967;28;20467;-42
2023/11/11 11:01:35;;;;;;;19.25;13.07;;;;;;;9.06;100.00;98705.63;5089404;28;20048;-42
2023/11/11 11:04:08;;;;;;;19.90;13.30;;;;;;;9.15;100.00;98703.09;5089609;28;20098;-43
2023/11/11 11:06:41;;;;;;;25.42;14.63;;;;;;;9.22;100.00;98697.31;5090336;28;20523;-42
2023/11/11 11:09:22;;;;;;;23.65;14.18;;;;;;;9.12;100.00;98706.00;5089887;28;20043;-44
2023/11/11 11:12:06;;;;;;;68.13;34.45;;;;;;;9.29;100.00;98703.84;5085191;28;20109;-42
2023/11/11 11:14:46;;;;;;;24.15;15.18;;;;;;;9.29;100.00;98694.03;5089712;28;20044;-42
2023/11/11 11:17:15;;;;;;;22.13;13.75;;;;;;;9.41;100.00;98698.38;5090578;28;20128;-42
2023/11/11 11:19:56;;;;;;;22.88;13.90;;;;;;;9.58;100.00;98701.50;5090137;28;20044;-41
2023/11/11 11:22:24;;;;;;;22.85;14.68;;;;;;;9.53;100.00;98701.03;5090149;28;20044;-43
2023/11/11 11:24:53;;;;;;;27.00;15.30;;;;;;;9.36;100.00;98699.69;5090091;28;20071;-45
2023/11/11 11:27:21;;;;;;;22.05;13.38;;;;;;;9.42;100.00;98699.22;5090295;28;20131;-44